Time;durP1;ratioP1;P1;durP2;ratioP2;P2;SDS_P1;SDS_P2;PMS_P1;PMS_P2;Temp;Humidity;BMP_temperature;BMP_pressure;BME280_temperature;BME280_humidity;BME280_pressure;Samples;Min_cycle;Max_cycle;Signal;HPM_P1;HPM_P2
2022/11/20 00:01:24;;;;;;;6.85;3.78;;;7.80;99.90;;;;;;4890847;29;20052;-80
2022/11/20 00:03:53;;;;;;;6.20;3.25;;;7.70;99.90;;;;;;4891315;29;20080;-79
2022/11/20 00:06:21;;;;;;;5.85;3.25;;;7.70;99.90;;;;;;4889955;29;20055;-80
2022/11/20 00:08:48;;;;;;;6.30;3.30;;;7.70;99.90;;;;;;4891641;29;20057;-80
2022/11/20 00:11:17;;;;;;;5.10;3.35;;;7.70;99.90;;;;;;4888623;29;20053;-79
2022/11/20 00:13:46;;;;;;;6.38;3.42;;;7.80;99.90;;;;;;4890875;29;20049;-79
2022/11/20 00:16:15;;;;;;;3.70;3.17;;;7.70;99.90;;;;;;4893711;29;20057;-80
2022/11/20 00:18:42;;;;;;;6.57;3.80;;;7.80;99.90;;;;;;4892603;29;20281;-79
2022/11/20 00:21:23;;;;;;;7.03;3.67;;;7.80;99.90;;;;;;4889041;29;20061;-80
2022/11/20 00:23:51;;;;;;;5.90;4.55;;;7.80;99.90;;;;;;4890314;29;20100;-78
2022/11/20 00:26:22;;;;;;;6.70;3.50;;;7.80;99.90;;;;;;4889641;29;20052;-80
2022/11/20 00:28:55;;;;;;;5.68;3.63;;;7.80;99.90;;;;;;4890825;29;20555;-80
2022/11/20 00:31:22;;;;;;;4.95;3.42;;;7.80;99.90;;;;;;4890439;29;20053;-78
2022/11/20 00:33:49;;;;;;;6.97;3.40;;;7.80;99.90;;;;;;4899511;29;20045;-81
2022/11/20 00:36:19;;;;;;;5.13;4.07;;;7.80;99.90;;;;;;4888639;29;20059;-78
2022/11/20 00:38:46;;;;;;;8.43;3.72;;;7.80;99.90;;;;;;4891633;29;20140;-79
2022/11/20 00:41:15;;;;;;;9.05;4.93;;;7.70;99.90;;;;;;4890897;29;20059;-78
2022/11/20 00:43:42;;;;;;;4.07;3.47;;;7.70;99.90;;;;;;4879597;29;20053;-79
2022/11/20 00:46:15;;;;;;;5.07;3.45;;;7.70;99.90;;;;;;4886510;29;20418;-77
2022/11/20 00:48:42;;;;;;;5.05;3.38;;;7.70;99.90;;;;;;4887212;29;20125;-78
2022/11/20 00:51:12;;;;;;;6.45;3.75;;;7.70;99.90;;;;;;4893521;29;20422;-79
2022/11/20 00:53:39;;;;;;;7.67;3.53;;;7.70;99.90;;;;;;4896395;29;20127;-79
2022/11/20 00:56:07;;;;;;;9.13;3.47;;;7.70;99.90;;;;;;4888951;29;20502;-78
2022/11/20 00:58:36;;;;;;;5.57;3.15;;;7.70;99.90;;;;;;4888034;29;20060;-79
2022/11/20 01:01:09;;;;;;;10.48;3.67;;;7.70;99.90;;;;;;4888875;29;20061;-79
2022/11/20 01:03:40;;;;;;;4.43;3.15;;;7.70;99.90;;;;;;4889196;29;20060;-78
2022/11/20 01:06:07;;;;;;;;;;;7.70;99.90;;;;;;4887772;29;20052;-78
2022/11/20 01:08:35;;;;;;;4.57;3.08;;;7.70;99.90;;;;;;4897320;29;19930;-78
2022/11/20 01:11:09;;;;;;;8.02;3.70;;;7.70;99.90;;;;;;4896763;29;20154;-78
2022/11/20 01:13:37;;;;;;;6.10;3.28;;;7.70;99.90;;;;;;4886904;29;20053;-77
2022/11/20 01:16:18;;;;;;;7.93;3.25;;;7.60;99.90;;;;;;4886171;29;20059;-78
2022/11/20 01:18:47;;;;;;;5.32;2.90;;;7.60;99.90;;;;;;4895229;29;20052;-78
2022/11/20 01:21:20;;;;;;;7.80;3.25;;;7.60;99.90;;;;;;4886436;29;20059;-79
2022/11/20 01:23:48;;;;;;;8.52;2.95;;;7.50;99.90;;;;;;4887851;29;20056;-77
2022/11/20 01:26:26;;;;;;;9.10;2.80;;;7.50;99.90;;;;;;4890449;29;20470;-78
2022/11/20 01:28:54;;;;;;;5.15;3.47;;;7.50;99.90;;;;;;4891613;29;20053;-79
2022/11/20 01:31:32;;;;;;;6.22;3.50;;;7.50;99.90;;;;;;4890124;29;20056;-78
2022/11/20 01:34:02;;;;;;;8.73;3.30;;;7.50;99.90;;;;;;4893621;29;20056;-78
2022/11/20 01:36:31;;;;;;;6.75;3.35;;;7.50;99.90;;;;;;4899407;29;20499;-78
2022/11/20 01:39:03;;;;;;;5.40;2.85;;;7.50;99.90;;;;;;4890536;29;20510;-79
2022/11/20 01:44:20;;;;;;;8.13;3.25;;;7.50;99.90;;;;;;4888079;29;20057;-80
2022/11/20 01:47:00;;;;;;;8.35;2.92;;;7.50;99.90;;;;;;4896865;29;20411;-80
2022/11/20 01:49:42;;;;;;;;;;;7.50;99.90;;;;;;4888697;29;20049;-79
2022/11/20 01:52:22;;;;;;;7.10;3.10;;;7.50;99.90;;;;;;4886747;29;20306;-79
2022/11/20 01:54:58;;;;;;;5.13;3.20;;;7.50;99.90;;;;;;4902920;29;20048;-79
2022/11/20 01:57:27;;;;;;;5.43;3.05;;;7.50;99.90;;;;;;4887961;29;20048;-79
2022/11/20 02:00:00;;;;;;;8.10;3.20;;;7.50;99.90;;;;;;4887093;29;20053;-79
2022/11/20 02:02:27;;;;;;;4.85;2.85;;;7.40;99.90;;;;;;4887510;29;20061;-79
2022/11/20 02:04:58;;;;;;;7.05;2.78;;;7.40;99.90;;;;;;4889847;29;20059;-79
2022/11/20 02:07:25;;;;;;;5.88;3.50;;;7.50;99.90;;;;;;4887053;29;20045;-78
2022/11/20 02:09:52;;;;;;;5.90;3.40;;;7.50;99.90;;;;;;4880462;29;20053;-79
2022/11/20 02:15:09;;;;;;;11.50;4.18;;;7.50;99.90;;;;;;4888335;29;20057;-78
2022/11/20 02:17:36;;;;;;;7.38;4.47;;;7.50;99.90;;;;;;4890187;29;20108;-80
2022/11/20 02:20:04;;;;;;;8.13;3.63;;;7.50;99.90;;;;;;4887940;29;20408;-78
2022/11/20 02:22:41;;;;;;;7.55;2.88;;;7.50;99.90;;;;;;4890816;29;20150;-79
2022/11/20 02:25:10;;;;;;;7.03;3.60;;;7.60;99.90;;;;;;4886809;29;20492;-79
2022/11/20 02:27:36;;;;;;;6.22;3.58;;;7.60;99.90;;;;;;4889283;29;20415;-78
2022/11/20 02:30:07;;;;;;;8.48;3.55;;;7.60;99.90;;;;;;4894640;29;20051;-80
2022/11/20 02:32:36;;;;;;;6.45;3.40;;;7.60;99.90;;;;;;4889732;29;20136;-78
2022/11/20 02:35:29;;;;;;;5.43;3.35;;;7.60;99.90;;;;;;4889559;29;20053;-79
2022/11/20 02:38:00;;;;;;;5.72;3.22;;;7.60;99.90;;;;;;4892359;29;20210;-78
2022/11/20 02:40:28;;;;;;;5.85;3.90;;;7.50;99.90;;;;;;4887946;29;20052;-78
2022/11/20 02:42:55;;;;;;;9.25;4.85;;;7.60;99.90;;;;;;4885714;29;20048;-78
2022/11/20 02:45:24;;;;;;;7.93;4.38;;;7.60;99.90;;;;;;4888284;29;20060;-78
2022/11/20 02:47:51;;;;;;;7.93;4.95;;;7.60;99.90;;;;;;4897067;29;20071;-78
2022/11/20 02:50:18;;;;;;;9.70;4.53;;;7.60;99.90;;;;;;4889370;29;20048;-77
2022/11/20 02:52:45;;;;;;;12.88;4.55;;;7.60;99.90;;;;;;4890972;29;20060;-78
2022/11/20 02:55:12;;;;;;;9.40;4.72;;;7.60;99.90;;;;;;4889953;29;20052;-78
2022/11/20 02:57:38;;;;;;;10.57;4.95;;;7.60;99.90;;;;;;4890523;29;20059;-78
2022/11/20 03:00:06;;;;;;;8.30;5.03;;;7.60;99.90;;;;;;4890105;29;20415;-78
2022/11/20 03:02:33;;;;;;;6.50;4.13;;;7.60;99.90;;;;;;4890983;29;20108;-79
2022/11/20 03:05:00;;;;;;;5.88;4.22;;;7.60;99.90;;;;;;4897286;29;20059;-79
2022/11/20 03:07:27;;;;;;;8.10;4.72;;;7.60;99.90;;;;;;4896178;29;20045;-79
2022/11/20 03:09:54;;;;;;;7.88;4.75;;;7.60;99.90;;;;;;4892199;29;20048;-78
2022/11/20 03:12:20;;;;;;;9.07;5.05;;;7.50;99.90;;;;;;4890841;29;20045;-78
2022/11/20 03:14:47;;;;;;;12.30;5.47;;;7.50;99.90;;;;;;4888689;29;20250;-78
2022/11/20 03:17:18;;;;;;;8.07;4.80;;;7.50;99.90;;;;;;4892282;29;20053;-79
2022/11/20 03:19:45;;;;;;;10.90;4.82;;;7.50;99.90;;;;;;4892387;29;20060;-77
2022/11/20 03:22:12;;;;;;;8.98;4.82;;;7.50;99.90;;;;;;4893244;29;20052;-80
2022/11/20 03:24:38;;;;;;;9.35;4.68;;;7.60;99.90;;;;;;4892824;29;20424;-79
2022/11/20 03:27:05;;;;;;;15.52;4.90;;;7.60;99.90;;;;;;4887843;29;20057;-78
2022/11/20 03:29:32;;;;;;;5.88;4.30;;;7.60;99.90;;;;;;4889130;29;20061;-79
2022/11/20 03:31:58;;;;;;;8.57;4.40;;;7.60;99.90;;;;;;4888174;29;20057;-77
2022/11/20 03:34:25;;;;;;;7.47;3.80;;;7.60;99.90;;;;;;4890458;29;20053;-78
2022/11/20 03:36:52;;;;;;;7.07;4.75;;;7.60;99.90;;;;;;4888641;29;20080;-79
2022/11/20 03:39:18;;;;;;;8.73;4.40;;;7.60;99.90;;;;;;4893437;29;21002;-79
2022/11/20 03:41:46;;;;;;;8.13;4.25;;;7.60;99.90;;;;;;4895375;29;20075;-79
2022/11/20 03:44:12;;;;;;;6.35;4.10;;;7.60;99.90;;;;;;4888767;29;20068;-79
2022/11/20 03:46:39;;;;;;;7.05;4.45;;;7.60;99.90;;;;;;4897201;29;20052;-78
2022/11/20 03:49:06;;;;;;;6.60;3.95;;;7.60;99.90;;;;;;4888908;29;20048;-79
2022/11/20 03:51:35;;;;;;;4.47;3.17;;;7.60;99.90;;;;;;4890446;29;20052;-80
2022/11/20 03:54:05;;;;;;;7.50;3.25;;;7.60;99.90;;;;;;4891311;29;20143;-79
2022/11/20 03:56:34;;;;;;;5.80;3.47;;;7.60;99.90;;;;;;4887444;29;20139;-78
2022/11/20 03:59:01;;;;;;;5.40;3.55;;;7.60;99.90;;;;;;4901175;29;20052;-78
2022/11/20 04:01:31;;;;;;;4.85;3.47;;;7.60;99.90;;;;;;4891319;29;20056;-79
2022/11/20 04:03:59;;;;;;;4.75;3.67;;;7.60;99.90;;;;;;4888334;29;20103;-77
2022/11/20 04:06:33;;;;;;;5.68;3.72;;;7.60;99.90;;;;;;4891947;29;20136;-77
2022/11/20 04:09:00;;;;;;;5.63;2.90;;;7.60;99.90;;;;;;4890833;29;20053;-79
2022/11/20 04:11:29;;;;;;;6.28;3.20;;;7.50;99.90;;;;;;4891638;29;20049;-78
2022/11/20 04:13:58;;;;;;;5.85;3.00;;;7.50;99.90;;;;;;4890970;29;20057;-77
2022/11/20 04:16:26;;;;;;;8.18;3.78;;;7.50;99.90;;;;;;4895403;29;20044;-78
2022/11/20 04:18:57;;;;;;;5.43;3.50;;;7.50;99.90;;;;;;4900575;29;20057;-79
2022/11/20 04:21:25;;;;;;;4.70;3.30;;;7.40;99.90;;;;;;4890812;29;20064;-78
2022/11/20 04:23:53;;;;;;;7.85;3.60;;;7.50;99.90;;;;;;4891851;29;20079;-78
2022/11/20 04:26:21;;;;;;;5.43;3.78;;;7.50;99.90;;;;;;4889330;29;20059;-77
2022/11/20 04:28:48;;;;;;;5.63;4.65;;;7.50;99.90;;;;;;4891594;29;20052;-76
2022/11/20 04:31:18;;;;;;;5.47;4.00;;;7.50;99.90;;;;;;4888329;29;20045;-78
2022/11/20 04:33:45;;;;;;;7.30;4.28;;;7.50;99.90;;;;;;4891596;29;20426;-78
2022/11/20 04:36:23;;;;;;;6.43;4.20;;;7.50;99.90;;;;;;4892794;29;20060;-79
2022/11/20 04:38:54;;;;;;;6.13;4.00;;;7.50;99.90;;;;;;4895607;29;20049;-80
2022/11/20 04:41:25;;;;;;;4.80;3.47;;;7.40;99.90;;;;;;4912587;29;20080;-81
2022/11/20 04:43:59;;;;;;;5.97;3.22;;;7.40;99.90;;;;;;4911450;29;20044;-80
2022/11/20 04:46:27;;;;;;;6.32;3.83;;;7.40;99.90;;;;;;4914260;29;20096;-81
2022/11/20 04:48:54;;;;;;;4.75;3.25;;;7.40;99.90;;;;;;4911372;29;20048;-81
2022/11/20 04:51:21;;;;;;;8.00;3.08;;;7.40;99.90;;;;;;4899068;29;20468;-78
2022/11/20 04:53:48;;;;;;;6.15;3.35;;;7.40;99.90;;;;;;4895151;29;20048;-78
2022/11/20 04:56:15;;;;;;;5.55;2.80;;;7.40;99.90;;;;;;4887037;29;20060;-77
2022/11/20 04:58:41;;;;;;;6.50;3.25;;;7.40;99.90;;;;;;4889611;29;20060;-78
2022/11/20 05:01:17;;;;;;;4.47;3.08;;;7.40;99.90;;;;;;4887077;29;20049;-78
2022/11/20 05:03:44;;;;;;;4.25;2.83;;;7.40;99.90;;;;;;4887027;29;20109;-79
2022/11/20 05:06:13;;;;;;;7.05;2.90;;;7.40;99.90;;;;;;4889091;29;20049;-80
2022/11/20 05:08:40;;;;;;;5.65;2.63;;;7.40;99.90;;;;;;4890232;29;20056;-79
2022/11/20 05:11:10;;;;;;;3.40;2.30;;;7.40;99.90;;;;;;4890413;29;20059;-78
2022/11/20 05:13:37;;;;;;;5.68;2.97;;;7.40;99.90;;;;;;4894521;29;20053;-79
2022/11/20 05:16:10;;;;;;;4.95;2.58;;;7.40;99.90;;;;;;4889778;29;20052;-79
2022/11/20 05:18:37;;;;;;;5.85;2.97;;;7.50;99.90;;;;;;4887984;29;20049;-78
2022/11/20 05:21:05;;;;;;;4.18;2.67;;;7.40;99.90;;;;;;4888674;29;20105;-79
2022/11/20 05:23:32;;;;;;;7.55;2.70;;;7.40;99.90;;;;;;4887886;29;20395;-78
2022/11/20 05:25:59;;;;;;;3.03;2.65;;;7.40;99.90;;;;;;4888125;29;20052;-78
2022/11/20 05:28:28;;;;;;;3.28;2.15;;;7.40;99.90;;;;;;4897012;29;20056;-77
2022/11/20 05:30:55;;;;;;;3.92;2.90;;;7.50;99.90;;;;;;4896356;29;20055;-78
2022/11/20 05:33:22;;;;;;;4.10;2.33;;;7.50;99.90;;;;;;4887331;29;20054;-79
2022/11/20 05:35:48;;;;;;;3.22;2.25;;;7.40;99.90;;;;;;4895754;29;20060;-77
2022/11/20 05:38:15;;;;;;;2.70;1.98;;;7.40;99.90;;;;;;4888114;29;20048;-79
2022/11/20 05:40:42;;;;;;;3.15;1.90;;;7.40;99.90;;;;;;4889744;29;20081;-78
2022/11/20 05:43:09;;;;;;;3.35;2.40;;;7.40;99.90;;;;;;4888100;29;20430;-77
2022/11/20 05:45:36;;;;;;;3.30;2.42;;;7.40;99.90;;;;;;4891185;29;20099;-79
2022/11/20 05:48:02;;;;;;;3.13;2.25;;;7.40;99.90;;;;;;4896335;29;20417;-78
2022/11/20 05:50:30;;;;;;;2.35;1.75;;;7.40;99.90;;;;;;4891594;29;20049;-79
2022/11/20 05:53:00;;;;;;;5.10;2.35;;;7.40;99.90;;;;;;4888104;29;20068;-79
2022/11/20 05:55:27;;;;;;;2.53;1.90;;;7.50;99.90;;;;;;4888746;29;20049;-80
2022/11/20 05:57:54;;;;;;;5.63;1.90;;;7.40;99.90;;;;;;4887246;29;20516;-79
2022/11/20 06:00:22;;;;;;;3.47;2.13;;;7.40;99.90;;;;;;4889899;29;20052;-78
2022/11/20 06:02:48;;;;;;;3.53;1.80;;;7.50;99.90;;;;;;4888616;29;20048;-79
2022/11/20 06:05:15;;;;;;;2.65;1.80;;;7.50;99.90;;;;;;4903191;29;20064;-78
2022/11/20 06:07:42;;;;;;;2.35;1.77;;;7.40;99.90;;;;;;4889358;29;20059;-78
2022/11/20 06:10:09;;;;;;;2.20;1.70;;;7.50;99.90;;;;;;4887294;29;20461;-77
2022/11/20 06:12:36;;;;;;;3.65;1.67;;;7.50;99.90;;;;;;4889733;29;20090;-79
2022/11/20 06:15:04;;;;;;;2.42;2.03;;;7.50;99.90;;;;;;4887315;29;20049;-80
2022/11/20 06:17:31;;;;;;;3.13;1.55;;;7.50;99.90;;;;;;4886568;29;20455;-80
2022/11/20 06:19:57;;;;;;;4.00;2.10;;;7.40;99.90;;;;;;4900669;29;20056;-79
2022/11/20 06:22:24;;;;;;;3.28;1.45;;;7.40;99.90;;;;;;4890673;29;20057;-77
2022/11/20 06:24:51;;;;;;;2.40;1.73;;;7.40;99.90;;;;;;4890994;29;20053;-78
2022/11/20 06:27:17;;;;;;;1.95;1.52;;;7.40;99.90;;;;;;4890606;29;20057;-79
2022/11/20 06:29:44;;;;;;;2.10;1.60;;;7.40;99.90;;;;;;4892779;29;20053;-78
2022/11/20 06:32:11;;;;;;;2.22;1.48;;;7.40;99.90;;;;;;4889975;29;20064;-78
2022/11/20 06:34:37;;;;;;;4.78;1.60;;;7.40;99.90;;;;;;4892733;29;20049;-77
2022/11/20 06:37:05;;;;;;;1.63;1.45;;;7.40;99.90;;;;;;4894177;29;20067;-78
2022/11/20 06:39:31;;;;;;;1.75;1.50;;;7.40;99.90;;;;;;4902576;29;20056;-78
2022/11/20 06:41:58;;;;;;;3.55;1.50;;;7.40;99.90;;;;;;4889643;29;20052;-79
2022/11/20 06:44:25;;;;;;;2.58;1.65;;;7.40;99.90;;;;;;4898669;29;20052;-81
2022/11/20 06:46:52;;;;;;;2.75;1.60;;;7.40;99.90;;;;;;4890632;29;20056;-78
2022/11/20 06:49:19;;;;;;;3.13;1.50;;;7.50;99.90;;;;;;4891051;29;20550;-78
2022/11/20 06:51:46;;;;;;;2.45;1.40;;;7.50;99.90;;;;;;4888941;29;20055;-80
2022/11/20 06:54:13;;;;;;;2.78;1.63;;;7.50;99.90;;;;;;4890937;29;20124;-79
2022/11/20 06:56:39;;;;;;;1.75;1.60;;;7.50;99.90;;;;;;4897595;29;20055;-80
2022/11/20 06:59:07;;;;;;;2.25;1.60;;;7.50;99.90;;;;;;4897585;29;20052;-79
2022/11/20 07:01:34;;;;;;;1.85;1.20;;;7.50;99.90;;;;;;4891184;29;20049;-78
2022/11/20 07:04:02;;;;;;;5.32;1.80;;;7.50;99.90;;;;;;4892585;29;20116;-79
2022/11/20 07:06:29;;;;;;;3.67;1.55;;;7.50;99.90;;;;;;4892573;29;20054;-79
2022/11/20 07:08:56;;;;;;;3.40;1.73;;;7.50;99.90;;;;;;4889995;29;20148;-79
2022/11/20 07:11:23;;;;;;;2.10;1.42;;;7.50;99.90;;;;;;4894017;29;20128;-80
2022/11/20 07:13:50;;;;;;;6.38;2.22;;;7.50;99.90;;;;;;4900553;29;20044;-81
2022/11/20 07:16:17;;;;;;;2.25;1.77;;;7.50;99.90;;;;;;4889870;29;20053;-78
2022/11/20 07:18:43;;;;;;;3.63;2.22;;;7.50;99.90;;;;;;4894054;29;20052;-79
2022/11/20 07:21:16;;;;;;;2.13;1.70;;;7.50;99.90;;;;;;4890038;29;20502;-78
2022/11/20 07:23:43;;;;;;;6.00;2.10;;;7.50;99.90;;;;;;4892826;29;20052;-78
2022/11/20 07:26:10;;;;;;;1.55;1.42;;;7.50;99.90;;;;;;4887978;29;20076;-79
2022/11/20 07:28:37;;;;;;;4.05;1.85;;;7.50;99.90;;;;;;4893054;29;20103;-77
2022/11/20 07:31:06;;;;;;;2.22;1.63;;;7.50;99.90;;;;;;4900667;29;20052;-78
2022/11/20 07:33:34;;;;;;;2.22;1.92;;;7.50;99.90;;;;;;4888674;29;20431;-78
2022/11/20 07:36:01;;;;;;;3.70;2.17;;;7.50;99.90;;;;;;4890181;29;20055;-79
2022/11/20 07:38:27;;;;;;;5.40;2.78;;;7.60;99.90;;;;;;4888676;29;20053;-79
2022/11/20 07:40:56;;;;;;;10.98;3.45;;;7.60;99.90;;;;;;4890863;29;20112;-78
2022/11/20 07:43:24;;;;;;;6.60;2.88;;;7.60;99.90;;;;;;4891906;29;20063;-78
2022/11/20 07:45:51;;;;;;;2.60;1.90;;;7.70;99.90;;;;;;4899436;29;20044;-78
2022/11/20 07:48:18;;;;;;;2.58;1.40;;;7.70;99.90;;;;;;4903593;29;20060;-79
2022/11/20 07:50:45;;;;;;;1.88;1.33;;;7.60;99.90;;;;;;4888653;29;20053;-79
2022/11/20 07:53:13;;;;;;;2.10;1.38;;;7.70;99.90;;;;;;4891324;29;20053;-77
2022/11/20 07:55:40;;;;;;;3.88;1.40;;;7.60;99.90;;;;;;4896918;29;20048;-78
2022/11/20 07:58:06;;;;;;;3.00;1.70;;;7.70;99.90;;;;;;4894058;29;20057;-79
2022/11/20 08:00:33;;;;;;;1.45;1.10;;;7.70;99.90;;;;;;4893366;29;20060;-78
2022/11/20 08:03:04;;;;;;;4.55;1.45;;;7.70;99.90;;;;;;4892061;29;20083;-78
2022/11/20 08:05:30;;;;;;;3.25;1.60;;;7.70;99.90;;;;;;4890997;29;20048;-78
2022/11/20 08:07:57;;;;;;;2.85;1.30;;;7.70;99.90;;;;;;4889829;29;20059;-79
2022/11/20 08:10:24;;;;;;;3.30;1.63;;;7.80;99.90;;;;;;4889641;29;20057;-77
2022/11/20 08:15:40;;;;;;;2.90;1.58;;;7.80;99.90;;;;;;4889542;29;20056;-80
2022/11/20 08:18:10;;;;;;;2.58;1.40;;;7.80;99.90;;;;;;4890517;29;20570;-79
2022/11/20 08:20:57;;;;;;;3.83;2.00;;;7.80;99.90;;;;;;4888862;29;20061;-79
2022/11/20 08:23:24;;;;;;;5.55;1.83;;;7.80;99.90;;;;;;4891305;29;20061;-80
2022/11/20 08:25:51;;;;;;;2.00;1.50;;;7.80;99.90;;;;;;4890507;29;20048;-78
2022/11/20 08:28:17;;;;;;;2.45;1.55;;;7.90;99.90;;;;;;4888768;29;20053;-79
2022/11/20 08:30:48;;;;;;;1.88;1.40;;;7.90;99.90;;;;;;4886950;29;20083;-77
2022/11/20 08:33:15;;;;;;;2.33;1.60;;;7.90;99.90;;;;;;4890098;29;20049;-79
2022/11/20 08:35:42;;;;;;;3.22;1.65;;;7.90;99.90;;;;;;4890919;29;20438;-78
2022/11/20 08:38:09;;;;;;;4.53;2.42;;;7.90;99.90;;;;;;4890453;29;20080;-77
2022/11/20 08:40:36;;;;;;;3.03;1.85;;;8.00;99.90;;;;;;4892955;29;20088;-79
2022/11/20 08:43:03;;;;;;;2.72;1.83;;;8.00;99.90;;;;;;4891124;29;20057;-80
2022/11/20 08:45:29;;;;;;;5.10;1.85;;;8.00;99.90;;;;;;4887820;29;20053;-79
2022/11/20 08:48:00;;;;;;;2.42;1.67;;;8.00;99.90;;;;;;4896921;29;20048;-78
2022/11/20 08:50:27;;;;;;;3.53;1.80;;;8.00;99.90;;;;;;4894314;29;20131;-78
2022/11/20 08:52:54;;;;;;;3.83;1.60;;;8.10;99.90;;;;;;4893887;29;20048;-79
2022/11/20 08:55:20;;;;;;;3.83;1.60;;;8.10;99.90;;;;;;4892077;29;20496;-78
2022/11/20 08:57:47;;;;;;;3.13;1.73;;;8.10;99.90;;;;;;4891745;29;20338;-78
2022/11/20 09:00:17;;;;;;;2.33;1.52;;;8.20;99.90;;;;;;4891137;29;20085;-79
2022/11/20 09:02:43;;;;;;;3.33;2.03;;;8.20;99.90;;;;;;4889564;29;20060;-79
2022/11/20 09:05:10;;;;;;;6.47;1.65;;;8.30;99.90;;;;;;4887962;29;20510;-79
2022/11/20 09:07:37;;;;;;;4.15;2.10;;;8.30;99.90;;;;;;4889937;29;20482;-79
2022/11/20 09:10:04;;;;;;;2.42;2.05;;;8.30;99.90;;;;;;4891562;29;20049;-78
2022/11/20 09:12:52;;;;;;;2.88;1.92;;;8.30;99.90;;;;;;4891181;29;20383;-79
2022/11/20 09:15:19;;;;;;;3.90;1.58;;;8.40;99.90;;;;;;4890238;29;20049;-78
2022/11/20 09:17:53;;;;;;;3.67;1.88;;;8.40;99.90;;;;;;4890737;29;20052;-78
2022/11/20 09:20:20;;;;;;;4.38;1.58;;;8.40;99.90;;;;;;4891934;29;20053;-78
2022/11/20 09:22:48;;;;;;;3.33;1.90;;;8.40;99.90;;;;;;4890941;29;20049;-79
2022/11/20 09:25:15;;;;;;;2.92;1.85;;;8.40;99.90;;;;;;4890494;29;20076;-78
2022/11/20 09:27:43;;;;;;;3.17;2.00;;;8.40;99.90;;;;;;4890773;29;20085;-79
2022/11/20 09:30:10;;;;;;;3.38;1.90;;;8.40;99.90;;;;;;4890655;29;20048;-79
2022/11/20 09:32:39;;;;;;;4.43;2.10;;;8.40;99.90;;;;;;4891278;29;20067;-77
2022/11/20 09:35:06;;;;;;;7.03;2.95;;;8.40;99.90;;;;;;4893155;29;20075;-79
2022/11/20 09:37:33;;;;;;;8.48;4.80;;;8.50;99.90;;;;;;4890137;29;20052;-78
2022/11/20 09:39:59;;;;;;;5.90;3.45;;;8.50;99.90;;;;;;4892927;29;20426;-79
2022/11/20 09:42:44;;;;;;;6.78;3.45;;;8.60;99.90;;;;;;4891103;29;20526;-78
2022/11/20 09:45:16;;;;;;;6.80;2.85;;;8.60;99.90;;;;;;4887481;29;20060;-79
2022/11/20 09:47:54;;;;;;;4.00;2.70;;;8.60;99.90;;;;;;4888178;29;20052;-80
2022/11/20 09:50:47;;;;;;;4.40;2.42;;;8.60;99.90;;;;;;4889647;29;20450;-79
2022/11/20 09:53:35;;;;;;;5.25;2.15;;;8.50;99.90;;;;;;4892325;29;20053;-79
2022/11/20 09:56:04;;;;;;;5.15;2.85;;;8.60;99.90;;;;;;4890463;29;20045;-79
2022/11/20 09:58:44;;;;;;;5.97;3.42;;;8.50;99.90;;;;;;4895110;29;20088;-78
2022/11/20 10:01:16;;;;;;;;;;;8.50;99.90;;;;;;4889349;29;20068;-79
2022/11/20 10:03:55;;;;;;;9.10;4.15;;;8.50;99.90;;;;;;4890827;29;20274;-81
2022/11/20 10:06:40;;;;;;;6.60;3.95;;;8.40;99.90;;;;;;4888848;29;20068;-79
2022/11/20 10:09:09;;;;;;;5.47;3.42;;;8.40;99.90;;;;;;4887425;29;20045;-78
2022/11/20 10:11:58;;;;;;;6.70;3.50;;;8.40;99.90;;;;;;4888552;29;20535;-79
2022/11/20 10:14:41;;;;;;;6.70;4.00;;;8.50;99.90;;;;;;4900724;29;20053;-78
2022/11/20 10:17:58;;;;;;;4.90;3.05;;;8.50;99.90;;;;;;4897186;29;20427;-80
2022/11/20 10:20:47;;;;;;;5.00;3.40;;;8.50;99.90;;;;;;4920724;29;20053;-80
2022/11/20 10:23:17;;;;;;;5.72;2.42;;;8.60;99.90;;;;;;4910430;29;20407;-79
2022/11/20 10:26:01;;;;;;;5.65;3.13;;;8.60;99.90;;;;;;4914166;29;20096;-81
2022/11/20 10:28:48;;;;;;;4.57;3.00;;;8.70;99.90;;;;;;4906101;29;20053;-77
2022/11/20 10:31:35;;;;;;;8.45;3.53;;;8.70;99.90;;;;;;4904864;29;20056;-79
2022/11/20 10:34:08;;;;;;;4.88;2.70;;;8.80;99.90;;;;;;4892565;29;20057;-79
2022/11/20 10:36:46;;;;;;;4.60;2.70;;;8.80;99.90;;;;;;4889409;29;20117;-78
2022/11/20 10:39:22;;;;;;;4.53;2.50;;;8.90;99.90;;;;;;4887893;29;20498;-79
2022/11/20 10:41:52;;;;;;;3.45;2.22;;;8.90;99.90;;;;;;4890135;29;20089;-79
2022/11/20 10:45:00;;;;;;;5.35;2.13;;;8.90;99.90;;;;;;4886661;29;20581;-79
2022/11/20 10:47:16;;;;;;;7.53;2.38;;;8.90;99.90;;;;;;4886325;29;20051;-77
2022/11/20 10:49:52;;;;;;;5.10;2.35;;;9.00;99.90;;;;;;4891159;29;20261;-79
2022/11/20 10:52:47;;;;;;;5.93;2.10;;;9.10;99.90;;;;;;4891065;29;20442;-78
2022/11/20 10:55:48;;;;;;;5.38;2.00;;;9.10;99.90;;;;;;4890845;29;20052;-76
2022/11/20 10:58:26;;;;;;;4.60;1.58;;;9.10;99.90;;;;;;4891355;29;20053;-78
2022/11/20 11:01:03;;;;;;;4.43;1.63;;;9.20;99.90;;;;;;4883955;29;20529;-78
2022/11/20 11:03:32;;;;;;;3.47;1.50;;;9.30;99.90;;;;;;4892560;29;20053;-79
2022/11/20 11:06:15;;;;;;;2.30;1.40;;;9.20;99.90;;;;;;4885968;29;20053;-76
2022/11/20 11:08:43;;;;;;;3.28;1.60;;;9.30;99.90;;;;;;4885618;29;20045;-80
2022/11/20 11:11:32;;;;;;;4.05;1.50;;;9.30;99.90;;;;;;4895725;29;20451;-78
2022/11/20 11:14:10;;;;;;;2.90;1.95;;;9.40;99.90;;;;;;4893822;29;20059;-77
2022/11/20 11:16:50;;;;;;;6.13;1.58;;;9.40;99.90;;;;;;4891694;29;20051;-79
2022/11/20 11:19:17;;;;;;;2.42;1.52;;;9.30;99.90;;;;;;4897186;29;20052;-79
2022/11/20 11:21:49;;;;;;;4.78;1.85;;;9.20;99.90;;;;;;4894326;29;20052;-79
2022/11/20 11:24:26;;;;;;;3.75;1.98;;;9.20;99.90;;;;;;4891083;29;20052;-78
2022/11/20 11:27:14;;;;;;;3.85;1.98;;;9.20;99.90;;;;;;4895600;29;20083;-77
2022/11/20 11:29:44;;;;;;;5.95;2.38;;;9.20;99.90;;;;;;4892009;29;20140;-78
2022/11/20 11:32:20;;;;;;;3.75;2.42;;;9.20;99.90;;;;;;4897894;29;20052;-77
2022/11/20 11:35:18;;;;;;;4.22;2.30;;;9.30;99.90;;;;;;4893591;29;20045;-79
2022/11/20 11:37:46;;;;;;;5.03;3.35;;;9.30;99.90;;;;;;4894964;29;20418;-78
2022/11/20 11:40:15;;;;;;;9.13;3.95;;;9.30;99.90;;;;;;4891727;29;20056;-77
2022/11/20 11:42:54;;;;;;;6.00;2.28;;;9.30;99.90;;;;;;4894323;29;20048;-79
2022/11/20 11:45:21;;;;;;;5.43;2.50;;;9.30;99.90;;;;;;4896409;29;20048;-77
2022/11/20 11:47:51;;;;;;;6.03;2.78;;;9.40;99.90;;;;;;4895941;29;20055;-76
2022/11/20 11:50:21;;;;;;;7.50;2.90;;;9.40;99.90;;;;;;4896766;29;20044;-79
2022/11/20 11:53:09;;;;;;;4.20;2.20;;;9.40;99.90;;;;;;4894604;29;20048;-77
2022/11/20 11:55:41;;;;;;;4.00;2.13;;;9.50;99.90;;;;;;4895139;29;20426;-76
2022/11/20 11:58:41;;;;;;;3.75;2.03;;;9.50;99.90;;;;;;4891932;29;20434;-78
2022/11/20 12:01:34;;;;;;;2.75;1.40;;;9.50;99.90;;;;;;4891334;29;20052;-76
2022/11/20 12:04:23;;;;;;;6.03;1.77;;;9.60;99.90;;;;;;4889948;29;20486;-77
2022/11/20 12:07:10;;;;;;;5.13;1.90;;;9.80;99.90;;;;;;4889335;29;20052;-77
2022/11/20 12:09:58;;;;;;;3.50;1.38;;;9.90;99.90;;;;;;4894709;29;20049;-79
2022/11/20 12:12:29;;;;;;;7.10;1.70;;;9.90;99.90;;;;;;4894852;29;20121;-79
2022/11/20 12:14:58;;;;;;;2.53;1.33;;;9.90;99.90;;;;;;4893565;29;20051;-79
2022/11/20 12:17:25;;;;;;;2.90;1.20;;;10.00;99.90;;;;;;4894314;29;20044;-78
2022/11/20 12:19:51;;;;;;;3.65;1.35;;;10.00;99.90;;;;;;4889355;29;20047;-77
2022/11/20 12:22:26;;;;;;;2.38;1.30;;;10.00;99.90;;;;;;4886696;29;20056;-80
2022/11/20 12:25:11;;;;;;;2.05;1.17;;;10.00;99.90;;;;;;4892628;29;20049;-77
2022/11/20 12:27:52;;;;;;;2.15;1.30;;;10.10;99.90;;;;;;4893662;29;20049;-78
2022/11/20 12:30:20;;;;;;;2.22;1.05;;;10.00;99.90;;;;;;4888821;29;20144;-79
2022/11/20 12:33:18;;;;;;;1.95;1.00;;;10.00;99.90;;;;;;4900411;29;20032;-79
2022/11/20 12:35:58;;;;;;;1.55;0.90;;;9.80;99.90;;;;;;4892600;29;20142;-80
2022/11/20 12:39:05;;;;;;;2.58;0.98;;;9.80;99.90;;;;;;4887213;29;20063;-76
2022/11/20 12:45:11;;;;;;;2.92;0.90;;;9.50;99.90;;;;;;4889199;29;20053;-77
2022/11/20 12:48:09;;;;;;;1.90;0.95;;;9.50;99.90;;;;;;4889216;29;20099;-79
2022/11/20 12:50:52;;;;;;;1.63;1.00;;;9.50;99.90;;;;;;4889943;29;20079;-78
2022/11/20 12:53:59;;;;;;;1.60;0.90;;;9.50;99.90;;;;;;4887012;29;20057;-78
2022/11/20 12:56:58;;;;;;;2.63;0.98;;;9.50;99.90;;;;;;4888864;29;20131;-75
2022/11/20 13:00:13;;;;;;;1.52;1.00;;;9.60;99.90;;;;;;4890145;29;20112;-78
2022/11/20 13:03:01;;;;;;;2.80;1.52;;;9.70;99.90;;;;;;4878573;29;20053;-79
2022/11/20 13:05:39;;;;;;;3.88;1.02;;;9.70;99.90;;;;;;4895259;29;20052;-78
2022/11/20 13:08:18;;;;;;;4.47;1.40;;;9.70;99.90;;;;;;4889074;29;20060;-75
2022/11/20 13:11:03;;;;;;;3.47;1.55;;;9.70;99.90;;;;;;4885497;29;20057;-79
2022/11/20 13:13:54;;;;;;;2.25;1.15;;;9.70;99.90;;;;;;4888064;29;20509;-78
2022/11/20 13:16:37;;;;;;;2.30;1.10;;;9.70;99.90;;;;;;4886299;29;20049;-79
2022/11/20 13:19:05;;;;;;;1.50;1.10;;;9.80;99.90;;;;;;4887021;29;20053;-77
2022/11/20 13:21:40;;;;;;;2.63;1.23;;;9.70;99.90;;;;;;4886171;29;20052;-78
2022/11/20 13:24:24;;;;;;;8.57;3.75;;;9.80;99.90;;;;;;4886738;29;20053;-78
2022/11/20 13:27:01;;;;;;;6.60;2.00;;;9.70;99.90;;;;;;4886579;29;20057;-79
2022/11/20 13:29:29;;;;;;;5.63;1.85;;;9.70;99.90;;;;;;4889715;29;20529;-77
2022/11/20 13:32:18;;;;;;;2.97;1.10;;;9.70;99.90;;;;;;4886656;29;20045;-79
2022/11/20 13:35:00;;;;;;;6.53;1.63;;;9.60;99.90;;;;;;4884173;29;20052;-79